METAR Data
IDs: Format: Raw Decoded Include TAF

Data at: 0807 UTC 07 Dec 2021

KHWD 070754Z AUTO 00000KT 2 1/2SM BR BKN008 OVC065 11/09 A3002 RMK AO2 SLP174 T01110094 401220072
No TAF found for KHWD

KBFL 070754Z 00000KT 2 1/2SM BR BKN100 08/06 A3002 RMK AO2 SLP164 T00830061 401110072

KBFL 070734Z 0708/0806 VRB03KT 2SM BR BKN120
  FM071200 VRB03KT 4SM BR VCSH BKN050
  FM071900 VRB04KT 5SM HZ SCT020


KIFP 070755Z AUTO 00000KT 10SM CLR 15/M06 A2988 RMK AO2

KIFP 070534Z 0706/0806 19006KT P6SM BKN200
  FM071200 VRB05KT P6SM SCT080 BKN120
  TEMPO 0715/0719 -SHRA BKN060 OVC100
  FM072000 35011KT P6SM SCT060 BKN100
  FM080300 02010KT P6SM SCT080